Time;durP1;ratioP1;P1;durP2;ratioP2;P2;SDS_P1;SDS_P2;PMS_P1;PMS_P2;Temp;Humidity;BMP_temperature;BMP_pressure;BME280_temperature;BME280_humidity;BME280_pressure;Samples;Min_cycle;Max_cycle;Signal;HPM_P1;HPM_P2
2023/12/29 00:01:53;;;;;;;;;;;;;;;;;;5078144;28;20003;-84
2023/12/29 00:04:18;;;;;;;;;;;;;;;;;;5077572;28;19912;-85
2023/12/29 00:06:44;;;;;;;;;;;;;;;;;;5078690;28;19939;-85
2023/12/29 00:09:09;;;;;;;;;;;;;;;;;;5079140;28;19909;-85
2023/12/29 00:11:34;;;;;;;;;;;;;;;;;;5078619;28;19915;-84
2023/12/29 00:13:59;;;;;;;;;;;;;;;;;;5078912;28;19908;-84
2023/12/29 00:16:24;;;;;;;;;;;;;;;;;;5077182;28;19909;-84
2023/12/29 00:18:49;;;;;;;;;;;;;;;;;;5078500;28;20286;-84
2023/12/29 00:21:14;;;;;;;;;;;;;;;;;;5076220;28;19915;-84
2023/12/29 00:23:39;;;;;;;;;;;;;;;;;;5077171;28;19916;-84
2023/12/29 00:26:04;;;;;;;;;;;;;;;;;;5077009;28;19915;-85
2023/12/29 00:28:29;;;;;;;;;;;;;;;;;;5078694;28;19909;-84
2023/12/29 00:30:54;;;;;;;;;;;;;;;;;;5076917;28;19908;-85
2023/12/29 00:33:20;;;;;;;;;;;;;;;;;;5077311;28;20298;-85
2023/12/29 00:35:45;;;;;;;;;;;;;;;;;;5077074;28;19944;-85
2023/12/29 00:38:10;;;;;;;;;;;;;;;;;;5077556;28;20004;-85
2023/12/29 00:40:35;;;;;;;;;;;;;;;;;;5073142;28;19913;-84
2023/12/29 00:43:00;;;;;;;;;;;;;;;;;;5077373;28;20011;-84
2023/12/29 00:45:25;;;;;;;;;;;;;;;;;;5075417;28;19909;-84
2023/12/29 00:47:51;;;;;;;;;;;;;;;;;;5075788;28;19936;-85
2023/12/29 00:50:16;;;;;;;;;;;;;;;;;;5078182;28;19915;-85
2023/12/29 00:52:42;;;;;;;;;;;;;;;;;;5079272;28;19912;-85
2023/12/29 00:55:07;;;;;;;;;;;;;;;;;;5074955;28;19989;-84
2023/12/29 00:57:32;;;;;;;;;;;;;;;;;;5074553;28;20367;-83
2023/12/29 00:59:57;;;;;;;;;;;;;;;;;;5073529;28;19916;-84
2023/12/29 01:02:22;;;;;;;;;;;;;;;;;;5073787;28;19909;-84
2023/12/29 01:04:47;;;;;;;;;;;;;;;;;;5075260;28;20348;-85
2023/12/29 01:07:12;;;;;;;;;;;;;;;;;;5075596;28;20398;-84
2023/12/29 01:09:39;;;;;;;;;;;;;;;;;;5074926;28;20446;-84
2023/12/29 01:12:05;;;;;;;;;;;;;;;;;;5075834;28;19912;-84
2023/12/29 01:14:30;;;;;;;;;;;;;;;;;;5075224;28;19909;-84
2023/12/29 01:16:55;;;;;;;;;;;;;;;;;;5075173;28;20306;-84
2023/12/29 01:19:20;;;;;;;;;;;;;;;;;;5075022;28;19912;-84
2023/12/29 01:21:45;;;;;;;;;;;;;;;;;;5074380;28;19991;-84
2023/12/29 01:24:10;;;;;;;;;;;;;;;;;;5075508;28;19909;-85
2023/12/29 01:26:35;;;;;;;;;;;;;;;;;;5076206;28;19909;-83
2023/12/29 01:29:00;;;;;;;;;;;;;;;;;;5076221;28;19909;-85
2023/12/29 01:31:25;;;;;;;;;;;;;;;;;;5074889;28;19908;-84
2023/12/29 01:33:50;;;;;;;;;;;;;;;;;;5074937;28;19920;-85
2023/12/29 01:36:15;;;;;;;;;;;;;;;;;;5075439;28;19978;-84
2023/12/29 01:38:41;;;;;;;;;;;;;;;;;;5075412;28;20359;-84
2023/12/29 01:41:06;;;;;;;;;;;;;;;;;;5074962;28;19908;-84
2023/12/29 01:43:31;;;;;;;;;;;;;;;;;;5076902;28;19909;-84
2023/12/29 01:45:56;;;;;;;;;;;;;;;;;;5075124;28;19909;-84
2023/12/29 01:48:21;;;;;;;;;;;;;;;;;;5075479;28;19916;-85
2023/12/29 01:50:46;;;;;;;;;;;;;;;;;;5076164;28;19912;-84
2023/12/29 01:53:12;;;;;;;;;;;;;;;;;;5076781;28;20367;-84
2023/12/29 01:55:37;;;;;;;;;;;;;;;;;;5075447;28;19909;-84
2023/12/29 01:58:02;;;;;;;;;;;;;;;;;;5075507;28;20309;-84
2023/12/29 02:00:27;;;;;;;;;;;;;;;;;;5074743;28;19943;-85
2023/12/29 02:02:52;;;;;;;;;;;;;;;;;;5076028;28;19991;-85
2023/12/29 02:05:17;;;;;;;;;;;;;;;;;;5075637;28;19978;-84
2023/12/29 02:07:43;;;;;;;;;;;;;;;;;;5074854;28;20417;-85
2023/12/29 02:10:08;;;;;;;;;;;;;;;;;;5076687;28;19942;-85
2023/12/29 02:12:33;;;;;;;;;;;;;;;;;;5074580;28;19912;-84
2023/12/29 02:14:58;;;;;;;;;;;;;;;;;;5075236;28;19908;-85
2023/12/29 02:17:24;;;;;;;;;;;;;;;;;;5076177;28;19909;-84
2023/12/29 02:19:49;;;;;;;;;;;;;;;;;;5074774;28;19974;-85
2023/12/29 02:22:15;;;;;;;;;;;;;;;;;;5074958;28;19908;-84
2023/12/29 02:24:40;;;;;;;;;;;;;;;;;;5076039;28;19916;-84
2023/12/29 02:27:05;;;;;;;;;;;;;;;;;;5076382;28;19915;-83
2023/12/29 02:29:30;;;;;;;;;;;;;;;;;;5074410;28;20389;-84
2023/12/29 02:31:55;;;;;;;;;;;;;;;;;;5075142;28;19913;-84
2023/12/29 02:34:20;;;;;;;;;;;;;;;;;;5074523;28;19912;-84
2023/12/29 02:36:45;;;;;;;;;;;;;;;;;;5075677;28;19909;-85
2023/12/29 02:39:10;;;;;;;;;;;;;;;;;;5075206;28;19908;-83
2023/12/29 02:41:36;;;;;;;;;;;;;;;;;;5074423;28;19908;-84
2023/12/29 02:44:01;;;;;;;;;;;;;;;;;;5074277;28;20007;-84
2023/12/29 02:46:26;;;;;;;;;;;;;;;;;;5071349;28;20007;-84
2023/12/29 02:48:51;;;;;;;;;;;;;;;;;;5072341;28;19921;-84
2023/12/29 02:51:16;;;;;;;;;;;;;;;;;;5071556;28;20017;-84
2023/12/29 02:53:41;;;;;;;;;;;;;;;;;;5073285;28;20371;-84
2023/12/29 02:56:06;;;;;;;;;;;;;;;;;;5073371;28;20007;-84
2023/12/29 02:58:31;;;;;;;;;;;;;;;;;;5072104;28;20003;-83
2023/12/29 03:00:56;;;;;;;;;;;;;;;;;;5072330;28;19908;-84
2023/12/29 03:03:21;;;;;;;;;;;;;;;;;;5073881;28;19954;-84
2023/12/29 03:05:47;;;;;;;;;;;;;;;;;;5073987;28;19908;-84
2023/12/29 03:08:12;;;;;;;;;;;;;;;;;;5072860;28;19917;-84
2023/12/29 03:10:37;;;;;;;;;;;;;;;;;;5074434;28;19967;-84
2023/12/29 03:13:04;;;;;;;;;;;;;;;;;;5074633;28;20015;-85
2023/12/29 03:15:29;;;;;;;;;;;;;;;;;;5072957;28;20387;-85
2023/12/29 03:17:54;;;;;;;;;;;;;;;;;;5073918;28;20290;-84
2023/12/29 03:20:19;;;;;;;;;;;;;;;;;;5074737;28;19912;-84
2023/12/29 03:22:44;;;;;;;;;;;;;;;;;;5077425;28;19954;-84
2023/12/29 03:25:09;;;;;;;;;;;;;;;;;;5076882;28;19908;-84
2023/12/29 03:27:34;;;;;;;;;;;;;;;;;;5077795;28;20286;-85
2023/12/29 03:29:59;;;;;;;;;;;;;;;;;;5077304;28;19908;-84
2023/12/29 03:32:24;;;;;;;;;;;;;;;;;;5077955;28;20267;-84
2023/12/29 03:34:49;;;;;;;;;;;;;;;;;;5077722;28;20367;-84
2023/12/29 03:37:15;;;;;;;;;;;;;;;;;;5074299;28;19909;-84
2023/12/29 03:39:40;;;;;;;;;;;;;;;;;;5075050;28;19908;-83
2023/12/29 03:42:05;;;;;;;;;;;;;;;;;;5073886;28;19916;-83
2023/12/29 03:44:30;;;;;;;;;;;;;;;;;;5075337;28;19959;-83
2023/12/29 03:46:55;;;;;;;;;;;;;;;;;;5075187;28;20006;-83
2023/12/29 03:49:20;;;;;;;;;;;;;;;;;;5073885;28;19974;-83
2023/12/29 03:51:46;;;;;;;;;;;;;;;;;;5073324;28;20374;-83
2023/12/29 03:54:11;;;;;;;;;;;;;;;;;;5073777;28;19915;-84
2023/12/29 03:56:36;;;;;;;;;;;;;;;;;;5075143;28;19912;-84
2023/12/29 03:59:01;;;;;;;;;;;;;;;;;;5073550;28;19909;-83
2023/12/29 04:01:27;;;;;;;;;;;;;;;;;;5073521;28;19908;-84
2023/12/29 04:03:52;;;;;;;;;;;;;;;;;;5073586;28;19919;-84
2023/12/29 04:06:17;;;;;;;;;;;;;;;;;;5074858;28;19909;-84
2023/12/29 04:08:42;;;;;;;;;;;;;;;;;;5082980;28;19909;-84
2023/12/29 04:11:08;;;;;;;;;;;;;;;;;;5074240;28;19923;-84
2023/12/29 04:13:33;;;;;;;;;;;;;;;;;;5073395;28;19919;-83
2023/12/29 04:15:58;;;;;;;;;;;;;;;;;;5074679;28;19912;-84
2023/12/29 04:18:23;;;;;;;;;;;;;;;;;;5074256;28;20322;-84
2023/12/29 04:20:48;;;;;;;;;;;;;;;;;;5072888;28;19908;-83
2023/12/29 04:23:13;;;;;;;;;;;;;;;;;;5073297;28;20337;-84
2023/12/29 04:25:38;;;;;;;;;;;;;;;;;;5074385;28;20421;-84
2023/12/29 04:28:03;;;;;;;;;;;;;;;;;;5073050;28;20351;-83
2023/12/29 04:30:28;;;;;;;;;;;;;;;;;;5073590;28;19913;-84
2023/12/29 04:32:54;;;;;;;;;;;;;;;;;;5072728;28;19970;-83
2023/12/29 04:35:19;;;;;;;;;;;;;;;;;;5074341;28;19951;-84
2023/12/29 04:37:44;;;;;;;;;;;;;;;;;;5072946;28;19908;-84
2023/12/29 04:40:09;;;;;;;;;;;;;;;;;;5074261;28;19999;-84
2023/12/29 04:42:34;;;;;;;;;;;;;;;;;;5073907;28;20375;-83
2023/12/29 04:44:59;;;;;;;;;;;;;;;;;;5074219;28;20466;-84
2023/12/29 04:47:24;;;;;;;;;;;;;;;;;;5072877;28;20389;-84
2023/12/29 04:49:49;;;;;;;;;;;;;;;;;;5072634;28;19917;-83
2023/12/29 04:52:14;;;;;;;;;;;;;;;;;;5073587;28;19912;-84
2023/12/29 04:54:39;;;;;;;;;;;;;;;;;;5073991;28;19909;-83
2023/12/29 04:57:05;;;;;;;;;;;;;;;;;;5074152;28;19916;-83
2023/12/29 04:59:30;;;;;;;;;;;;;;;;;;5072451;28;20271;-83
2023/12/29 05:01:55;;;;;;;;;;;;;;;;;;5072219;28;19908;-84
2023/12/29 05:04:20;;;;;;;;;;;;;;;;;;5073734;28;19958;-83
2023/12/29 05:06:45;;;;;;;;;;;;;;;;;;5072437;28;19991;-83
2023/12/29 05:09:10;;;;;;;;;;;;;;;;;;5073473;28;19909;-84
2023/12/29 05:11:35;;;;;;;;;;;;;;;;;;5071967;28;19931;-83
2023/12/29 05:14:00;;;;;;;;;;;;;;;;;;5073703;28;19909;-83
2023/12/29 05:16:25;;;;;;;;;;;;;;;;;;5073591;28;20290;-83
2023/12/29 05:18:50;;;;;;;;;;;;;;;;;;5071955;28;19912;-84
2023/12/29 05:21:16;;;;;;;;;;;;;;;;;;5073273;28;19993;-84
2023/12/29 05:23:41;;;;;;;;;;;;;;;;;;5073342;28;20003;-84
2023/12/29 05:26:06;;;;;;;;;;;;;;;;;;5072137;28;19916;-84
2023/12/29 05:28:31;;;;;;;;;;;;;;;;;;5071886;28;19956;-83
2023/12/29 05:30:56;;;;;;;;;;;;;;;;;;5071740;28;19909;-84
2023/12/29 05:33:21;;;;;;;;;;;;;;;;;;5071788;28;20395;-85
2023/12/29 05:35:46;;;;;;;;;;;;;;;;;;5073057;28;19908;-84
2023/12/29 05:38:11;;;;;;;;;;;;;;;;;;5071891;28;19931;-84
2023/12/29 05:40:36;;;;;;;;;;;;;;;;;;5072697;28;20414;-84
2023/12/29 05:43:02;;;;;;;;;;;;;;;;;;5072280;28;20413;-83
2023/12/29 05:45:27;;;;;;;;;;;;;;;;;;5079216;28;20029;-83
2023/12/29 05:47:52;;;;;;;;;;;;;;;;;;5072233;28;19940;-84
2023/12/29 05:50:17;;;;;;;;;;;;;;;;;;5071186;28;19991;-84
2023/12/29 05:52:42;;;;;;;;;;;;;;;;;;5072726;28;19951;-83
2023/12/29 05:55:07;;;;;;;;;;;;;;;;;;5071560;28;19955;-83
2023/12/29 05:57:32;;;;;;;;;;;;;;;;;;5072706;28;19916;-83
2023/12/29 05:59:57;;;;;;;;;;;;;;;;;;5074661;28;19915;-84
2023/12/29 06:02:22;;;;;;;;;;;;;;;;;;5077238;28;19914;-84
2023/12/29 06:04:48;;;;;;;;;;;;;;;;;;5072539;28;19915;-83
2023/12/29 06:07:13;;;;;;;;;;;;;;;;;;5071064;28;19983;-84
2023/12/29 06:09:38;;;;;;;;;;;;;;;;;;5071111;28;19937;-83
2023/12/29 06:12:03;;;;;;;;;;;;;;;;;;5072314;28;19919;-83
2023/12/29 06:14:28;;;;;;;;;;;;;;;;;;5071090;28;19916;-83
2023/12/29 06:16:53;;;;;;;;;;;;;;;;;;5072226;28;19908;-83
2023/12/29 06:19:18;;;;;;;;;;;;;;;;;;5072147;28;19913;-83
2023/12/29 06:21:43;;;;;;;;;;;;;;;;;;5070672;28;19909;-83
2023/12/29 06:24:08;;;;;;;;;;;;;;;;;;5071152;28;19909;-83
2023/12/29 06:26:34;;;;;;;;;;;;;;;;;;5072231;28;19970;-82
2023/12/29 06:28:59;;;;;;;;;;;;;;;;;;5072026;28;20007;-84
2023/12/29 06:31:24;;;;;;;;;;;;;;;;;;5070734;28;20011;-83
2023/12/29 06:33:49;;;;;;;;;;;;;;;;;;5070624;28;19920;-83
2023/12/29 06:36:14;;;;;;;;;;;;;;;;;;5070874;28;19909;-83
2023/12/29 06:38:40;;;;;;;;;;;;;;;;;;5078426;28;19913;-83
2023/12/29 06:41:05;;;;;;;;;;;;;;;;;;5070598;28;19908;-83
2023/12/29 06:43:30;;;;;;;;;;;;;;;;;;5071894;28;19909;-83
2023/12/29 06:45:55;;;;;;;;;;;;;;;;;;5070702;28;19912;-83
2023/12/29 06:48:20;;;;;;;;;;;;;;;;;;5070547;28;19909;-83
2023/12/29 06:50:45;;;;;;;;;;;;;;;;;;5070559;28;19909;-83
2023/12/29 06:53:11;;;;;;;;;;;;;;;;;;5070572;28;19919;-83
2023/12/29 06:55:36;;;;;;;;;;;;;;;;;;5070650;28;20468;-83
2023/12/29 06:58:02;;;;;;;;;;;;;;;;;;5070696;28;19908;-84
2023/12/29 07:00:27;;;;;;;;;;;;;;;;;;5071569;28;19939;-83
2023/12/29 07:02:52;;;;;;;;;;;;;;;;;;5070388;28;20527;-83
2023/12/29 07:05:17;;;;;;;;;;;;;;;;;;5070555;28;19958;-83
2023/12/29 07:07:42;;;;;;;;;;;;;;;;;;5072347;28;19943;-84
2023/12/29 07:10:07;;;;;;;;;;;;;;;;;;5071356;28;19940;-83
2023/12/29 07:12:33;;;;;;;;;;;;;;;;;;5071401;28;20293;-84
2023/12/29 07:14:58;;;;;;;;;;;;;;;;;;5070351;28;19908;-83
2023/12/29 07:17:23;;;;;;;;;;;;;;;;;;5070387;28;20363;-83
2023/12/29 07:19:49;;;;;;;;;;;;;;;;;;5070152;28;20000;-83
2023/12/29 07:22:15;;;;;;;;;;;;;;;;;;5071490;28;19909;-83
2023/12/29 07:24:40;;;;;;;;;;;;;;;;;;5070640;28;20367;-84
2023/12/29 07:27:05;;;;;;;;;;;;;;;;;;5071743;28;19915;-83
2023/12/29 07:29:31;;;;;;;;;;;;;;;;;;5070259;28;20426;-84
2023/12/29 07:31:56;;;;;;;;;;;;;;;;;;5071147;28;19909;-83
2023/12/29 07:34:21;;;;;;;;;;;;;;;;;;5071784;28;20275;-83
2023/12/29 07:36:46;;;;;;;;;;;;;;;;;;5070320;28;20386;-83
2023/12/29 07:39:11;;;;;;;;;;;;;;;;;;5070395;28;19931;-85
2023/12/29 07:41:36;;;;;;;;;;;;;;;;;;5071462;28;19909;-88
2023/12/29 07:44:01;;;;;;;;;;;;;;;;;;5070959;28;19909;-83
2023/12/29 07:46:26;;;;;;;;;;;;;;;;;;5071964;28;19909;-85
2023/12/29 07:48:52;;;;;;;;;;;;;;;;;;5078330;28;19908;-86
2023/12/29 07:51:17;;;;;;;;;;;;;;;;;;5070422;28;19909;-84
2023/12/29 07:53:42;;;;;;;;;;;;;;;;;;5071643;28;19913;-83
2023/12/29 07:56:07;;;;;;;;;;;;;;;;;;5073688;28;19909;-85
2023/12/29 07:58:32;;;;;;;;;;;;;;;;;;5071501;28;19962;-85
2023/12/29 08:00:57;;;;;;;;;;;;;;;;;;5071317;28;19934;-84
2023/12/29 08:03:22;;;;;;;;;;;;;;;;;;5071474;28;19914;-84
2023/12/29 08:05:47;;;;;;;;;;;;;;;;;;5071321;28;20433;-83
2023/12/29 08:08:13;;;;;;;;;;;;;;;;;;5073836;28;19916;-83
2023/12/29 08:10:38;;;;;;;;;;;;;;;;;;5073131;28;19908;-84
2023/12/29 08:13:03;;;;;;;;;;;;;;;;;;5073646;28;19917;-83
2023/12/29 08:15:28;;;;;;;;;;;;;;;;;;5076682;28;19920;-84
2023/12/29 08:17:54;;;;;;;;;;;;;;;;;;5073324;28;20398;-85
2023/12/29 08:20:21;;;;;;;;;;;;;;;;;;5073256;28;19915;-84
2023/12/29 08:22:46;;;;;;;;;;;;;;;;;;5073536;28;19908;-84
2023/12/29 08:25:11;;;;;;;;;;;;;;;;;;5074477;28;19915;-83
2023/12/29 08:27:36;;;;;;;;;;;;;;;;;;5073250;28;19908;-83
2023/12/29 08:30:01;;;;;;;;;;;;;;;;;;5075324;28;19912;-83
2023/12/29 08:32:27;;;;;;;;;;;;;;;;;;5072932;28;19916;-82
2023/12/29 08:34:52;;;;;;;;;;;;;;;;;;5073132;28;19939;-83
2023/12/29 08:37:26;;;;;;;;;;;;;;;;;;5075199;28;19909;-89
2023/12/29 08:39:51;;;;;;;;;;;;;;;;;;5073665;28;19979;-84
2023/12/29 08:42:16;;;;;;;;;;;;;;;;;;5074568;28;19940;-84
2023/12/29 08:44:42;;;;;;;;;;;;;;;;;;5074323;28;19991;-83
2023/12/29 08:47:08;;;;;;;;;;;;;;;;;;5074236;28;20374;-83
2023/12/29 08:49:33;;;;;;;;;;;;;;;;;;5072850;28;19920;-83
2023/12/29 08:51:58;;;;;;;;;;;;;;;;;;5073673;28;19909;-84
2023/12/29 08:54:23;;;;;;;;;;;;;;;;;;5074315;28;20302;-83
2023/12/29 08:56:48;;;;;;;;;;;;;;;;;;5074083;28;20521;-83
2023/12/29 08:59:13;;;;;;;;;;;;;;;;;;5072859;28;19954;-83
2023/12/29 09:01:39;;;;;;;;;;;;;;;;;;5073558;28;19912;-83
2023/12/29 09:04:04;;;;;;;;;;;;;;;;;;5073000;28;19944;-83
2023/12/29 09:06:29;;;;;;;;;;;;;;;;;;5072809;28;20026;-83
2023/12/29 09:08:54;;;;;;;;;;;;;;;;;;5072693;28;19908;-83
2023/12/29 09:11:19;;;;;;;;;;;;;;;;;;5072466;28;19934;-82
2023/12/29 09:13:44;;;;;;;;;;;;;;;;;;5072412;28;20343;-82
2023/12/29 09:16:10;;;;;;;;;;;;;;;;;;5072021;28;20298;-82
2023/12/29 09:18:35;;;;;;;;;;;;;;;;;;5072927;28;19947;-82
2023/12/29 09:21:00;;;;;;;;;;;;;;;;;;5071926;28;19913;-82
2023/12/29 09:23:25;;;;;;;;;;;;;;;;;;5072362;28;19915;-82
2023/12/29 09:25:50;;;;;;;;;;;;;;;;;;5071987;28;19915;-82
2023/12/29 09:28:15;;;;;;;;;;;;;;;;;;5073353;28;20371;-82
2023/12/29 09:30:40;;;;;;;;;;;;;;;;;;5072803;28;19915;-82
2023/12/29 09:33:05;;;;;;;;;;;;;;;;;;5072726;28;19917;-82
2023/12/29 09:35:31;;;;;;;;;;;;;;;;;;5073470;28;19908;-82
2023/12/29 09:37:56;;;;;;;;;;;;;;;;;;5073870;28;19913;-83
2023/12/29 09:40:21;;;;;;;;;;;;;;;;;;5078974;28;19908;-85
2023/12/29 09:42:46;;;;;;;;;;;;;;;;;;5073830;28;19908;-86
2023/12/29 09:45:12;;;;;;;;;;;;;;;;;;5071698;28;19908;-86
2023/12/29 09:47:37;;;;;;;;;;;;;;;;;;5071451;28;19916;-86
2023/12/29 09:50:03;;;;;;;;;;;;;;;;;;5071741;28;19956;-84
2023/12/29 09:52:28;;;;;;;;;;;;;;;;;;5072607;28;19919;-83
2023/12/29 09:54:53;;;;;;;;;;;;;;;;;;5071366;28;19979;-83
2023/12/29 09:57:18;;;;;;;;;;;;;;;;;;5072855;28;20303;-83
2023/12/29 09:59:44;;;;;;;;;;;;;;;;;;5071433;28;20402;-84
2023/12/29 10:02:09;;;;;;;;;;;;;;;;;;5073551;28;19944;-84
2023/12/29 10:04:35;;;;;;;;;;;;;;;;;;5073187;28;19916;-83
2023/12/29 10:07:00;;;;;;;;;;;;;;;;;;5073887;28;19916;-83
2023/12/29 10:09:25;;;;;;;;;;;;;;;;;;5071661;28;19909;-83
2023/12/29 10:11:50;;;;;;;;;;;;;;;;;;5071595;28;19909;-83
2023/12/29 10:14:15;;;;;;;;;;;;;;;;;;5071827;28;19960;-84
2023/12/29 10:16:40;;;;;;;;;;;;;;;;;;5070086;28;19994;-83
2023/12/29 10:19:05;;;;;;;;;;;;;;;;;;5069499;28;19915;-85
2023/12/29 10:21:31;;;;;;;;;;;;;;;;;;5070519;28;20003;-84
2023/12/29 10:23:56;;;;;;;;;;;;;;;;;;5071243;28;19909;-83
2023/12/29 10:26:21;;;;;;;;;;;;;;;;;;5071051;28;19908;-84
2023/12/29 10:28:46;;;;;;;;;;;;;;;;;;5070266;28;20007;-82
2023/12/29 10:31:11;;;;;;;;;;;;;;;;;;5071121;28;19951;-85
2023/12/29 10:33:36;;;;;;;;;;;;;;;;;;5063754;28;19940;-83
2023/12/29 10:36:06;;;;;;;;;;;;;;;;;;5067448;28;20385;-83
2023/12/29 10:38:32;;;;;;;;;;;;;;;;;;5058340;28;19935;-84
2023/12/29 10:40:57;;;;;;;;;;;;;;;;;;5063228;28;20321;-84
2023/12/29 10:43:22;;;;;;;;;;;;;;;;;;5062090;28;19908;-84
2023/12/29 10:45:47;;;;;;;;;;;;;;;;;;5057965;28;20350;-84
2023/12/29 10:48:12;;;;;;;;;;;;;;;;;;5056805;28;19962;-83
2023/12/29 10:50:37;;;;;;;;;;;;;;;;;;5057604;28;20371;-84
2023/12/29 10:53:03;;;;;;;;;;;;;;;;;;5056175;28;19963;-83
2023/12/29 10:55:28;;;;;;;;;;;;;;;;;;5054552;28;19909;-83
2023/12/29 10:57:53;;;;;;;;;;;;;;;;;;5055412;28;19974;-83
2023/12/29 11:00:18;;;;;;;;;;;;;;;;;;5054552;28;20024;-82
2023/12/29 11:02:43;;;;;;;;;;;;;;;;;;5056904;28;20391;-83
2023/12/29 11:05:08;;;;;;;;;;;;;;;;;;5059272;28;19909;-83
2023/12/29 11:07:33;;;;;;;;;;;;;;;;;;5059727;28;19946;-83
2023/12/29 11:09:58;;;;;;;;;;;;;;;;;;5059786;28;19909;-83
2023/12/29 11:12:23;;;;;;;;;;;;;;;;;;5056439;28;19913;-84
2023/12/29 11:14:49;;;;;;;;;;;;;;;;;;5060050;28;19909;-83
2023/12/29 11:17:15;;;;;;;;;;;;;;;;;;5059335;28;19968;-83
2023/12/29 11:19:40;;;;;;;;;;;;;;;;;;5058868;28;19908;-83
2023/12/29 11:22:05;;;;;;;;;;;;;;;;;;5058083;28;20367;-83
2023/12/29 11:24:30;;;;;;;;;;;;;;;;;;5056603;28;19980;-83
2023/12/29 11:26:55;;;;;;;;;;;;;;;;;;5057365;28;19912;-84
2023/12/29 11:29:21;;;;;;;;;;;;;;;;;;5054395;28;19915;-82
2023/12/29 11:31:46;;;;;;;;;;;;;;;;;;5054850;28;19909;-83
2023/12/29 11:34:11;;;;;;;;;;;;;;;;;;5069284;28;19917;-83
2023/12/29 11:36:36;;;;;;;;;;;;;;;;;;5065877;28;19919;-83
2023/12/29 11:39:01;;;;;;;;;;;;;;;;;;5069670;28;19947;-83
2023/12/29 11:41:26;;;;;;;;;;;;;;;;;;5073369;28;20400;-83
2023/12/29 11:43:51;;;;;;;;;;;;;;;;;;5074113;28;19909;-83
2023/12/29 11:46:26;;;;;;;;;;;;;;;;;;5075647;28;20304;-88
2023/12/29 11:48:51;;;;;;;;;;;;;;;;;;5074038;28;19931;-83
2023/12/29 11:51:16;;;;;;;;;;;;;;;;;;5070678;28;19912;-83
2023/12/29 11:53:41;;;;;;;;;;;;;;;;;;5071297;28;20378;-83
2023/12/29 11:56:06;;;;;;;;;;;;;;;;;;5075771;28;19962;-83
2023/12/29 11:58:32;;;;;;;;;;;;;;;;;;5075472;28;19916;-89
2023/12/29 12:00:57;;;;;;;;;;;;;;;;;;5072823;28;19951;-83
2023/12/29 12:03:22;;;;;;;;;;;;;;;;;;5073330;28;19909;-82
2023/12/29 12:05:47;;;;;;;;;;;;;;;;;;5074738;28;19912;-83
2023/12/29 12:08:12;;;;;;;;;;;;;;;;;;5073523;28;19916;-83
2023/12/29 12:10:39;;;;;;;;;;;;;;;;;;5073076;28;20215;-87
2023/12/29 12:13:04;;;;;;;;;;;;;;;;;;5073316;28;20418;-85
2023/12/29 12:15:30;;;;;;;;;;;;;;;;;;5074361;28;20380;-86
2023/12/29 12:17:55;;;;;;;;;;;;;;;;;;5074526;28;19915;-84
2023/12/29 12:20:20;;;;;;;;;;;;;;;;;;5073245;28;19923;-85
2023/12/29 12:22:45;;;;;;;;;;;;;;;;;;5073406;28;19915;-84
2023/12/29 12:25:10;;;;;;;;;;;;;;;;;;5073342;28;19908;-84
2023/12/29 12:27:36;;;;;;;;;;;;;;;;;;5073275;28;20329;-85
2023/12/29 12:30:01;;;;;;;;;;;;;;;;;;5074512;28;19930;-84
2023/12/29 12:32:26;;;;;;;;;;;;;;;;;;5072797;28;19923;-85
2023/12/29 12:34:51;;;;;;;;;;;;;;;;;;5072428;28;20378;-85
2023/12/29 12:37:16;;;;;;;;;;;;;;;;;;5073459;28;19974;-85
2023/12/29 12:39:41;;;;;;;;;;;;;;;;;;5073085;28;20383;-85
2023/12/29 12:42:07;;;;;;;;;;;;;;;;;;5072866;28;19962;-85
2023/12/29 12:44:32;;;;;;;;;;;;;;;;;;5074450;28;19908;-83
2023/12/29 12:46:57;;;;;;;;;;;;;;;;;;5073152;28;19908;-83
2023/12/29 12:49:22;;;;;;;;;;;;;;;;;;5072648;28;20363;-83
2023/12/29 12:51:47;;;;;;;;;;;;;;;;;;5072402;28;19963;-83
2023/12/29 12:54:13;;;;;;;;;;;;;;;;;;5066120;28;20007;-84
2023/12/29 12:56:38;;;;;;;;;;;;;;;;;;5072635;28;20397;-84
2023/12/29 12:59:03;;;;;;;;;;;;;;;;;;5074584;28;19916;-85
2023/12/29 13:01:28;;;;;;;;;;;;;;;;;;5074256;28;19912;-83
2023/12/29 13:03:54;;;;;;;;;;;;;;;;;;5070309;28;19916;-83
2023/12/29 13:06:20;;;;;;;;;;;;;;;;;;5072040;28;20394;-83
2023/12/29 13:08:45;;;;;;;;;;;;;;;;;;5068073;28;19964;-83
2023/12/29 13:11:12;;;;;;;;;;;;;;;;;;5072683;28;19915;-83
2023/12/29 13:13:37;;;;;;;;;;;;;;;;;;5072856;28;20410;-82
2023/12/29 13:16:03;;;;;;;;;;;;;;;;;;5072984;28;20347;-83
2023/12/29 13:18:28;;;;;;;;;;;;;;;;;;5072458;28;19909;-83
2023/12/29 13:20:53;;;;;;;;;;;;;;;;;;5071889;28;19909;-83
2023/12/29 13:23:18;;;;;;;;;;;;;;;;;;5073679;28;19912;-84
2023/12/29 13:25:43;;;;;;;;;;;;;;;;;;5071847;28;19915;-84
2023/12/29 13:28:08;;;;;;;;;;;;;;;;;;5072236;28;19962;-83
2023/12/29 13:30:33;;;;;;;;;;;;;;;;;;5071811;28;19958;-84
2023/12/29 13:32:58;;;;;;;;;;;;;;;;;;5071897;28;19962;-83
2023/12/29 13:35:24;;;;;;;;;;;;;;;;;;5073505;28;19962;-85
2023/12/29 13:37:49;;;;;;;;;;;;;;;;;;5074008;28;19975;-83
2023/12/29 13:40:14;;;;;;;;;;;;;;;;;;5073471;28;19912;-83
2023/12/29 13:42:39;;;;;;;;;;;;;;;;;;5071398;28;19934;-83
2023/12/29 13:45:05;;;;;;;;;;;;;;;;;;5070688;28;19995;-83
2023/12/29 13:47:30;;;;;;;;;;;;;;;;;;5073149;28;19909;-83
2023/12/29 13:49:55;;;;;;;;;;;;;;;;;;5072898;28;20061;-83
2023/12/29 13:52:20;;;;;;;;;;;;;;;;;;5067442;28;20558;-85
2023/12/29 13:54:45;;;;;;;;;;;;;;;;;;5063951;28;20079;-83
2023/12/29 13:57:10;;;;;;;;;;;;;;;;;;5072164;28;19919;-83
2023/12/29 13:59:36;;;;;;;;;;;;;;;;;;5070718;28;19999;-82
2023/12/29 14:02:01;;;;;;;;;;;;;;;;;;5071681;28;19908;-83
2023/12/29 14:04:26;;;;;;;;;;;;;;;;;;5070891;28;19999;-83
2023/12/29 14:06:52;;;;;;;;;;;;;;;;;;5071460;28;19963;-83
2023/12/29 14:09:17;;;;;;;;;;;;;;;;;;5072663;28;19909;-83
2023/12/29 14:11:42;;;;;;;;;;;;;;;;;;5072977;28;20171;-84
2023/12/29 14:14:07;;;;;;;;;;;;;;;;;;5072191;28;19965;-83
2023/12/29 14:16:33;;;;;;;;;;;;;;;;;;5071323;28;19909;-82
2023/12/29 14:18:59;;;;;;;;;;;;;;;;;;5071299;28;19909;-83
2023/12/29 14:21:24;;;;;;;;;;;;;;;;;;5071204;28;20332;-83
2023/12/29 14:23:49;;;;;;;;;;;;;;;;;;5072205;28;19919;-82
2023/12/29 14:26:14;;;;;;;;;;;;;;;;;;5071167;28;20279;-82
2023/12/29 14:28:39;;;;;;;;;;;;;;;;;;5072088;28;19912;-82
2023/12/29 14:31:04;;;;;;;;;;;;;;;;;;5072337;28;19915;-83
2023/12/29 14:33:29;;;;;;;;;;;;;;;;;;5072259;28;19924;-83
2023/12/29 14:35:54;;;;;;;;;;;;;;;;;;5072169;28;20003;-83
2023/12/29 14:38:20;;;;;;;;;;;;;;;;;;5072061;28;19918;-83
2023/12/29 14:40:45;;;;;;;;;;;;;;;;;;5071862;28;19915;-83
2023/12/29 14:43:10;;;;;;;;;;;;;;;;;;5072534;28;19999;-83
2023/12/29 14:45:36;;;;;;;;;;;;;;;;;;5070656;28;19962;-83
2023/12/29 14:48:01;;;;;;;;;;;;;;;;;;5072321;28;19909;-82
2023/12/29 14:50:26;;;;;;;;;;;;;;;;;;5070508;28;19908;-82
2023/12/29 14:52:51;;;;;;;;;;;;;;;;;;5070846;28;20432;-83
2023/12/29 14:55:16;;;;;;;;;;;;;;;;;;5070635;28;19908;-83
2023/12/29 14:57:44;;;;;;;;;;;;;;;;;;5071839;28;20014;-82
2023/12/29 15:00:09;;;;;;;;;;;;;;;;;;5070737;28;19924;-83
2023/12/29 15:02:34;;;;;;;;;;;;;;;;;;5071535;28;19908;-81
2023/12/29 15:04:59;;;;;;;;;;;;;;;;;;5070566;28;19916;-83
2023/12/29 15:07:29;;;;;;;;;;;;;;;;;;5071985;28;19912;-82
2023/12/29 15:09:54;;;;;;;;;;;;;;;;;;5070414;28;19916;-83
2023/12/29 15:12:19;;;;;;;;;;;;;;;;;;5068944;28;19998;-82
2023/12/29 15:14:44;;;;;;;;;;;;;;;;;;5072704;28;19913;-83
2023/12/29 15:17:09;;;;;;;;;;;;;;;;;;5075458;28;20345;-83
2023/12/29 15:19:34;;;;;;;;;;;;;;;;;;5074514;28;19931;-82
2023/12/29 15:21:59;;;;;;;;;;;;;;;;;;5076186;28;19912;-83
2023/12/29 15:24:25;;;;;;;;;;;;;;;;;;5074404;28;19909;-83
2023/12/29 15:26:50;;;;;;;;;;;;;;;;;;5074185;28;19931;-82
2023/12/29 15:29:15;;;;;;;;;;;;;;;;;;5074238;28;19909;-82
2023/12/29 15:31:40;;;;;;;;;;;;;;;;;;5075354;28;19959;-82
2023/12/29 15:34:05;;;;;;;;;;;;;;;;;;5075404;28;19990;-83
2023/12/29 15:36:30;;;;;;;;;;;;;;;;;;5078100;28;20291;-84
2023/12/29 15:38:57;;;;;;;;;;;;;;;;;;5074943;28;19908;-83
2023/12/29 15:41:23;;;;;;;;;;;;;;;;;;5073877;28;19912;-83
2023/12/29 15:43:49;;;;;;;;;;;;;;;;;;5074015;28;19916;-82
2023/12/29 15:46:14;;;;;;;;;;;;;;;;;;5074282;28;19915;-83
2023/12/29 15:48:39;;;;;;;;;;;;;;;;;;5075139;28;19908;-83
2023/12/29 15:51:04;;;;;;;;;;;;;;;;;;5073393;28;20276;-83
2023/12/29 15:53:29;;;;;;;;;;;;;;;;;;5074668;28;19917;-82
2023/12/29 15:55:55;;;;;;;;;;;;;;;;;;5075000;28;19916;-82
2023/12/29 15:58:20;;;;;;;;;;;;;;;;;;5077427;28;19920;-82
2023/12/29 16:00:45;;;;;;;;;;;;;;;;;;5074424;28;19916;-81
2023/12/29 16:03:10;;;;;;;;;;;;;;;;;;5073717;28;19913;-82
2023/12/29 16:05:35;;;;;;;;;;;;;;;;;;5074796;28;19909;-82
2023/12/29 16:08:00;;;;;;;;;;;;;;;;;;5074880;28;19995;-82
2023/12/29 16:10:25;;;;;;;;;;;;;;;;;;5073330;28;19916;-82
2023/12/29 16:12:50;;;;;;;;;;;;;;;;;;5074610;28;19935;-82
2023/12/29 16:15:15;;;;;;;;;;;;;;;;;;5074755;28;19956;-82
2023/12/29 16:17:40;;;;;;;;;;;;;;;;;;5066486;28;19960;-82
2023/12/29 16:20:06;;;;;;;;;;;;;;;;;;5066976;28;19999;-82
2023/12/29 16:22:31;;;;;;;;;;;;;;;;;;5064475;28;20007;-82
2023/12/29 16:24:56;;;;;;;;;;;;;;;;;;5067377;28;19913;-82
2023/12/29 16:27:21;;;;;;;;;;;;;;;;;;5065303;28;19974;-83
2023/12/29 16:29:46;;;;;;;;;;;;;;;;;;5068591;28;19923;-82
2023/12/29 16:32:12;;;;;;;;;;;;;;;;;;5072290;28;20396;-83